Time;durP1;ratioP1;P1;durP2;ratioP2;P2;SDS_P1;SDS_P2;PMS_P1;PMS_P2;Temp;Humidity;BMP_temperature;BMP_pressure;BME280_temperature;BME280_humidity;BME280_pressure;Samples;Min_cycle;Max_cycle;Signal;HPM_P1;HPM_P2
2021/12/07 00:02:10;;;;;;;224.52;47.22;;;6.90;99.90;;;;;;4960225;28;20041;-88
2021/12/07 00:04:37;;;;;;;254.07;49.08;;;7.00;99.90;;;;;;4977605;28;20038;-88
2021/12/07 00:07:05;;;;;;;269.92;55.22;;;6.90;99.90;;;;;;4977915;28;20030;-89
2021/12/07 00:09:31;;;;;;;267.33;56.22;;;7.00;99.90;;;;;;4960161;28;20023;-88
2021/12/07 00:12:03;;;;;;;294.38;60.78;;;7.00;99.90;;;;;;4959619;28;20089;-88
2021/12/07 00:14:35;;;;;;;314.05;62.42;;;7.00;99.90;;;;;;4960849;28;20082;-88
2021/12/07 00:17:03;;;;;;;287.40;61.85;;;7.00;99.90;;;;;;4959854;28;20029;-89
2021/12/07 00:19:29;;;;;;;347.05;68.47;;;7.10;99.90;;;;;;4959949;28;20043;-89
2021/12/07 00:21:55;;;;;;;342.92;66.18;;;7.10;99.90;;;;;;4959735;28;20023;-88
2021/12/07 00:24:21;;;;;;;382.05;67.13;;;7.10;99.90;;;;;;4959725;28;20031;-88
2021/12/07 00:26:47;;;;;;;337.70;67.75;;;7.10;99.90;;;;;;4959446;28;20035;-88
2021/12/07 00:29:15;;;;;;;443.38;80.10;;;7.00;99.90;;;;;;4959970;28;20038;-88
2021/12/07 00:31:52;;;;;;;393.80;75.03;;;7.10;99.90;;;;;;4959279;28;20038;-88
2021/12/07 00:36:51;;;;;;;374.90;73.97;;;7.00;99.90;;;;;;4976190;28;20470;-87
2021/12/07 00:39:20;;;;;;;420.90;69.68;;;7.00;99.90;;;;;;4976680;28;20027;-88
2021/12/07 00:41:47;;;;;;;410.23;69.90;;;7.00;99.90;;;;;;4959151;28;20045;-88
2021/12/07 00:44:14;;;;;;;316.00;60.78;;;7.00;99.90;;;;;;4959211;28;20117;-87
2021/12/07 00:46:39;;;;;;;317.88;61.10;;;6.90;99.90;;;;;;4959336;28;20053;-88
2021/12/07 00:49:05;;;;;;;333.45;66.88;;;6.90;99.90;;;;;;4959434;28;20513;-88
2021/12/07 00:51:31;;;;;;;324.20;68.40;;;6.90;99.90;;;;;;4959123;28;20379;-88
2021/12/07 00:53:57;;;;;;;312.92;70.90;;;6.90;99.90;;;;;;4959092;28;20121;-88
2021/12/07 00:56:22;;;;;;;378.75;80.57;;;7.00;99.90;;;;;;4959182;28;20062;-88
2021/12/07 00:58:49;;;;;;;415.17;80.82;;;7.00;99.90;;;;;;4959092;28;20023;-88
2021/12/07 01:01:20;;;;;;;322.95;73.78;;;7.00;99.90;;;;;;4976203;28;20031;-87
2021/12/07 01:03:45;;;;;;;;;;;7.00;99.90;;;;;;4976934;28;20033;-87
2021/12/07 01:25:14;;;;;;;266.75;63.08;;;7.20;99.90;;;;;;4976470;28;20038;-88
2021/12/07 01:27:41;;;;;;;263.38;64.47;;;7.20;99.90;;;;;;4958669;28;20050;-87
2021/12/07 01:30:20;;;;;;;315.77;68.50;;;7.20;99.90;;;;;;4958578;28;20034;-87
2021/12/07 02:01:45;;;;;;;305.20;61.25;;;7.20;99.90;;;;;;4975717;28;20466;-87
2021/12/07 02:04:10;;;;;;;225.27;57.95;;;7.20;99.90;;;;;;4974837;28;20106;-87
2021/12/07 02:06:36;;;;;;;254.38;57.97;;;7.20;99.90;;;;;;4975379;28;20027;-87
2021/12/07 02:09:05;;;;;;;316.23;67.90;;;7.20;99.90;;;;;;4975214;28;20029;-87
2021/12/07 02:11:32;;;;;;;306.85;61.13;;;7.20;99.90;;;;;;4958000;28;20026;-87
2021/12/07 02:16:28;;;;;;;326.30;80.57;;;7.30;99.90;;;;;;4975581;28;20049;-87
2021/12/07 02:18:54;;;;;;;382.45;69.65;;;7.20;99.90;;;;;;4957896;28;20465;-87
2021/12/07 02:21:25;;;;;;;509.88;85.57;;;7.20;99.90;;;;;;4957616;28;20034;-87
2021/12/07 02:23:52;;;;;;;278.67;60.38;;;7.20;99.90;;;;;;4957848;28;20422;-87
2021/12/07 02:26:19;;;;;;;394.90;71.28;;;7.20;99.90;;;;;;4957858;28;20038;-87
2021/12/07 02:28:46;;;;;;;437.50;69.95;;;7.20;99.90;;;;;;4975366;28;20027;-87
2021/12/07 02:31:12;;;;;;;291.63;56.88;;;7.20;99.90;;;;;;4975069;28;20093;-87
2021/12/07 02:33:39;;;;;;;455.60;69.50;;;7.20;99.90;;;;;;4957655;28;20062;-87
2021/12/07 02:36:07;;;;;;;359.33;61.83;;;7.20;99.90;;;;;;4957863;28;20026;-87
2021/12/07 02:38:33;;;;;;;487.25;63.78;;;7.20;99.90;;;;;;4957978;28;20478;-87
2021/12/07 02:40:59;;;;;;;498.52;64.75;;;7.20;99.90;;;;;;4974829;28;20034;-87
2021/12/07 02:43:26;;;;;;;315.60;56.67;;;7.20;99.90;;;;;;4957398;28;20027;-87
2021/12/07 02:45:51;;;;;;;497.33;67.78;;;7.20;99.90;;;;;;4974901;28;20022;-87
2021/12/07 02:48:20;;;;;;;189.65;47.40;;;7.20;99.90;;;;;;4957664;28;20170;-88
2021/12/07 02:50:47;;;;;;;453.42;67.70;;;7.10;99.90;;;;;;4957590;28;20417;-86
2021/12/07 02:53:13;;;;;;;361.63;53.55;;;7.10;99.90;;;;;;4974860;28;20027;-87
2021/12/07 02:55:39;;;;;;;442.08;55.67;;;7.10;99.90;;;;;;4957644;28;20033;-88
2021/12/07 02:58:04;;;;;;;239.93;47.67;;;7.10;99.90;;;;;;4957751;28;20053;-88
2021/12/07 03:00:39;;;;;;;489.35;71.30;;;7.10;99.90;;;;;;4959978;28;20019;-88
2021/12/07 03:03:09;;;;;;;209.60;41.00;;;7.10;99.90;;;;;;4978317;28;20023;-88
2021/12/07 03:08:44;;;;;;;336.50;52.67;;;7.00;99.90;;;;;;4978167;28;20109;-88
2021/12/07 03:27:28;;;;;;;412.30;60.45;;;7.00;99.90;;;;;;4978265;28;20033;-90
2021/12/07 03:29:54;;;;;;;336.95;50.13;;;7.00;99.90;;;;;;4960988;28;20121;-91
2021/12/07 03:32:20;;;;;;;490.45;60.40;;;7.00;99.90;;;;;;4960533;28;20026;-90
2021/12/07 03:34:46;;;;;;;218.75;45.38;;;7.00;99.90;;;;;;4960677;28;20027;-91
2021/12/07 03:37:11;;;;;;;190.65;43.90;;;7.00;99.90;;;;;;4960697;28;20027;-90
2021/12/07 03:39:37;;;;;;;483.02;70.43;;;7.00;99.90;;;;;;4960499;28;20026;-91
2021/12/07 03:42:03;;;;;;;240.15;46.65;;;7.00;99.90;;;;;;4961529;28;20027;-91
2021/12/07 03:44:30;;;;;;;202.63;43.13;;;7.10;99.90;;;;;;4961463;28;20022;-90
2021/12/07 03:46:56;;;;;;;305.77;51.33;;;7.00;99.90;;;;;;4960656;28;20060;-90
2021/12/07 03:49:22;;;;;;;163.15;44.45;;;7.10;99.90;;;;;;4960284;28;20031;-90
2021/12/07 03:51:48;;;;;;;242.95;52.10;;;7.10;99.90;;;;;;4960375;28;20042;-90
2021/12/07 03:54:13;;;;;;;233.48;53.25;;;7.10;99.90;;;;;;4960470;28;20033;-90
2021/12/07 03:56:39;;;;;;;215.02;49.13;;;7.20;99.90;;;;;;4960618;28;20053;-90
2021/12/07 03:59:05;;;;;;;203.23;48.50;;;7.20;99.90;;;;;;4977758;28;20082;-90
2021/12/07 04:01:31;;;;;;;326.35;58.88;;;7.20;99.90;;;;;;4960761;28;20023;-90
2021/12/07 04:03:57;;;;;;;653.60;88.80;;;7.20;99.90;;;;;;4961086;28;20038;-94
2021/12/07 04:06:23;;;;;;;285.73;54.58;;;7.20;99.90;;;;;;4960631;28;20054;-92
2021/12/07 04:08:49;;;;;;;335.33;60.25;;;7.30;99.90;;;;;;4960406;28;20390;-93
2021/12/07 04:11:15;;;;;;;319.75;59.22;;;7.30;99.90;;;;;;4960363;28;20031;-93
2021/12/07 04:13:44;;;;;;;330.77;59.00;;;7.30;99.90;;;;;;4959993;28;20047;-93
2021/12/07 04:16:14;;;;;;;268.10;54.60;;;7.30;99.90;;;;;;4960061;28;20046;-92
2021/12/07 04:18:40;;;;;;;;;;;7.30;99.90;;;;;;4960490;28;20484;-92
2021/12/07 04:21:06;;;;;;;220.35;46.75;;;7.30;99.90;;;;;;4960247;28;20008;-92
2021/12/07 04:23:33;;;;;;;340.60;63.33;;;7.40;99.90;;;;;;4961010;28;20019;-92
2021/12/07 04:26:11;;;;;;;414.83;67.55;;;7.40;99.90;;;;;;4960168;28;20023;-93
2021/12/07 04:28:37;;;;;;;325.92;59.65;;;7.40;99.90;;;;;;4940310;29;20063;-92
2021/12/07 04:31:04;;;;;;;366.02;66.25;;;7.40;99.90;;;;;;4940564;29;20117;-93
2021/12/07 04:33:30;;;;;;;345.27;64.60;;;7.40;99.90;;;;;;4940519;29;20027;-92
2021/12/07 04:35:56;;;;;;;569.58;78.43;;;7.40;99.90;;;;;;4940575;29;20032;-92
2021/12/07 04:38:22;;;;;;;329.00;62.58;;;7.40;99.90;;;;;;4940481;29;20466;-91
2021/12/07 04:40:48;;;;;;;436.05;74.28;;;7.40;99.90;;;;;;4940270;29;20031;-92
2021/12/07 04:43:14;;;;;;;329.73;61.88;;;7.50;99.90;;;;;;4940235;29;20179;-92
2021/12/07 04:58:54;;;;;;;269.60;64.05;;;7.50;99.90;;;;;;4957571;29;20031;-93
2021/12/07 05:01:19;;;;;;;472.80;78.60;;;7.50;99.90;;;;;;4940633;29;20458;-92
2021/12/07 05:03:47;;;;;;;253.10;60.10;;;7.50;99.90;;;;;;4940678;29;20042;-92
2021/12/07 05:06:13;;;;;;;274.90;58.40;;;7.50;99.90;;;;;;4940270;29;20478;-92
2021/12/07 05:08:50;;;;;;;217.70;53.03;;;7.50;99.90;;;;;;4943680;29;20191;-94
2021/12/07 05:24:11;;;;;;;296.17;54.72;;;7.50;99.90;;;;;;4964207;29;20061;-91
2021/12/07 14:29:25;;;;;;;121.30;52.80;;;6.60;99.90;;;;;;5096066;27;20382;-93
2021/12/07 14:31:57;;;;;;;143.38;80.63;;;6.50;99.90;;;;;;5095312;28;20031;-91
2021/12/07 14:34:30;;;;;;;96.05;46.92;;;6.40;99.90;;;;;;5092816;28;20028;-92
2021/12/07 14:37:03;;;;;;;80.15;42.45;;;6.40;99.90;;;;;;5075425;28;20047;-88
2021/12/07 14:39:32;;;;;;;80.72;37.92;;;6.30;99.90;;;;;;5090499;28;20036;-91
2021/12/07 14:42:06;;;;;;;91.93;51.73;;;6.30;99.90;;;;;;5090438;28;20074;-90
2021/12/07 14:44:35;;;;;;;106.40;55.60;;;6.30;99.90;;;;;;5090302;28;20024;-90
2021/12/07 14:47:04;;;;;;;79.80;38.35;;;6.30;99.90;;;;;;5091060;28;20455;-91
2021/12/07 14:49:32;;;;;;;97.63;40.53;;;6.20;99.90;;;;;;5091417;28;20020;-91
2021/12/07 14:51:58;;;;;;;69.15;37.47;;;6.10;99.90;;;;;;5090990;28;20024;-91
2021/12/07 14:54:23;;;;;;;69.13;33.83;;;6.10;99.90;;;;;;5091580;28;20029;-90
2021/12/07 14:56:52;;;;;;;71.70;33.58;;;6.10;99.90;;;;;;5091485;28;20403;-91
2021/12/07 14:59:20;;;;;;;93.53;38.90;;;6.10;99.90;;;;;;5090862;28;20113;-91
2021/12/07 15:01:50;;;;;;;77.30;37.17;;;6.00;99.90;;;;;;5091209;28;20068;-91
2021/12/07 15:04:17;;;;;;;66.20;34.30;;;5.90;99.90;;;;;;5090808;28;20475;-91
2021/12/07 15:06:48;;;;;;;70.82;40.72;;;5.80;99.90;;;;;;5091972;28;20024;-92
2021/12/07 15:09:14;;;;;;;94.70;46.25;;;5.80;99.90;;;;;;5090988;28;20102;-91
2021/12/07 15:11:43;;;;;;;81.35;37.13;;;5.80;99.90;;;;;;5091288;28;20024;-92
2021/12/07 15:14:14;;;;;;;94.22;37.60;;;5.80;99.90;;;;;;5091156;28;20016;-91
2021/12/07 15:16:41;;;;;;;98.78;37.83;;;5.90;99.90;;;;;;5090978;28;20029;-91
2021/12/07 15:19:08;;;;;;;100.53;37.80;;;5.90;99.90;;;;;;5093216;28;20024;-91
2021/12/07 15:21:37;;;;;;;88.88;32.72;;;5.90;99.90;;;;;;5092825;28;20363;-92
2021/12/07 15:24:12;;;;;;;89.35;36.72;;;5.70;99.90;;;;;;5090166;28;20024;-90
2021/12/07 15:26:39;;;;;;;84.65;32.90;;;5.40;99.90;;;;;;5090745;28;20024;-91
2021/12/07 15:29:09;;;;;;;84.55;35.13;;;5.40;99.90;;;;;;5091021;28;20044;-91
2021/12/07 15:31:39;;;;;;;64.05;29.50;;;5.40;99.90;;;;;;5091793;28;20020;-92
2021/12/07 15:34:06;;;;;;;122.70;40.55;;;5.30;99.90;;;;;;5091784;28;20025;-92
2021/12/07 15:36:40;;;;;;;102.82;37.88;;;5.30;99.90;;;;;;5092733;28;20094;-93
2021/12/07 15:39:23;;;;;;;114.30;45.13;;;5.30;99.90;;;;;;5086169;28;20024;-90
2021/12/07 15:41:57;;;;;;;96.95;39.22;;;5.40;99.90;;;;;;5077016;28;20463;-91
2021/12/07 15:44:38;;;;;;;85.68;38.88;;;5.50;99.90;;;;;;5077480;28;20382;-90
2021/12/07 15:47:10;;;;;;;83.90;36.55;;;5.50;99.90;;;;;;5077409;28;20111;-91
2021/12/07 15:49:45;;;;;;;127.03;56.28;;;5.60;99.90;;;;;;5076265;28;20055;-88
2021/12/07 15:52:17;;;;;;;127.55;54.78;;;5.40;99.90;;;;;;5076604;28;20021;-91
2021/12/07 15:55:07;;;;;;;99.95;38.72;;;5.40;99.90;;;;;;5075886;28;20027;-91
2021/12/07 15:57:51;;;;;;;138.45;62.40;;;5.30;99.90;;;;;;5076024;28;20050;-90
2021/12/07 16:00:24;;;;;;;89.15;42.97;;;5.30;99.90;;;;;;5076168;28;20028;-90
2021/12/07 16:02:57;;;;;;;102.18;43.30;;;5.20;99.90;;;;;;5076221;28;20029;-91
2021/12/07 16:05:23;;;;;;;118.78;42.60;;;5.30;99.90;;;;;;5075720;28;20466;-90
2021/12/07 16:07:49;;;;;;;118.90;43.30;;;5.20;99.90;;;;;;5075947;28;20086;-90
2021/12/07 16:10:22;;;;;;;114.47;42.03;;;5.30;99.90;;;;;;5076377;28;20020;-90
2021/12/07 16:13:14;;;;;;;90.68;39.45;;;5.20;99.90;;;;;;5075868;28;20020;-90
2021/12/07 16:15:43;;;;;;;183.68;65.40;;;5.20;99.90;;;;;;5076233;28;20066;-90
2021/12/07 16:18:10;;;;;;;147.32;50.45;;;5.20;99.90;;;;;;5075353;28;20027;-90
2021/12/07 16:20:37;;;;;;;120.78;49.00;;;5.20;99.90;;;;;;5075950;28;20414;-90
2021/12/07 16:23:05;;;;;;;189.88;62.25;;;5.20;99.90;;;;;;5075205;28;20024;-90
2021/12/07 16:25:32;;;;;;;164.85;52.63;;;5.20;99.90;;;;;;5075144;28;20028;-90
2021/12/07 16:27:59;;;;;;;125.05;40.13;;;5.20;99.90;;;;;;5075132;28;20049;-89
2021/12/07 16:30:24;;;;;;;194.88;49.17;;;5.20;99.90;;;;;;5075226;28;20028;-90
2021/12/07 16:32:50;;;;;;;120.78;40.67;;;5.10;99.90;;;;;;5078224;28;20017;-90
2021/12/07 16:35:16;;;;;;;96.28;40.55;;;5.10;99.90;;;;;;5076803;28;20062;-89
2021/12/07 16:37:43;;;;;;;138.57;38.95;;;5.10;99.90;;;;;;5074502;28;20407;-88
2021/12/07 16:40:18;;;;;;;308.58;58.35;;;5.10;99.90;;;;;;5074862;28;20021;-89
2021/12/07 16:42:47;;;;;;;111.85;37.28;;;5.20;99.90;;;;;;5074880;28;20402;-89
2021/12/07 16:45:15;;;;;;;153.32;41.65;;;5.20;99.90;;;;;;5076093;28;20111;-90
2021/12/07 16:47:41;;;;;;;107.15;36.28;;;5.20;99.90;;;;;;5075157;28;20086;-89
2021/12/07 16:50:08;;;;;;;95.45;32.00;;;5.10;99.90;;;;;;5074513;28;20470;-89
2021/12/07 16:52:35;;;;;;;97.00;35.55;;;5.20;99.90;;;;;;5073493;28;20051;-89
2021/12/07 16:55:01;;;;;;;107.15;36.10;;;5.10;99.90;;;;;;5074156;28;20020;-88
2021/12/07 16:57:26;;;;;;;95.68;35.60;;;5.00;99.90;;;;;;5074227;28;20082;-89
2021/12/07 16:59:52;;;;;;;152.57;44.58;;;5.00;99.90;;;;;;5074431;28;20387;-88
2021/12/07 17:02:18;;;;;;;112.97;44.67;;;4.90;99.90;;;;;;5074230;28;20033;-88
2021/12/07 17:04:44;;;;;;;104.97;41.97;;;4.90;99.90;;;;;;5074271;28;20028;-88
2021/12/07 17:07:10;;;;;;;89.05;37.50;;;4.90;99.90;;;;;;5074016;28;20039;-88
2021/12/07 17:09:36;;;;;;;93.10;36.42;;;4.80;99.90;;;;;;5073688;28;20048;-88
2021/12/07 17:12:02;;;;;;;87.60;35.40;;;4.90;99.90;;;;;;5073874;28;20021;-89
2021/12/07 17:14:28;;;;;;;81.30;34.67;;;4.90;99.90;;;;;;5074006;28;20016;-88
2021/12/07 17:16:54;;;;;;;111.40;45.97;;;4.90;99.90;;;;;;5073923;28;20108;-88
2021/12/07 17:19:21;;;;;;;79.18;36.85;;;4.70;99.90;;;;;;5073873;28;20052;-88
2021/12/07 17:21:51;;;;;;;95.35;38.70;;;4.70;99.90;;;;;;5073705;28;20620;-89
2021/12/07 17:24:20;;;;;;;97.77;40.87;;;4.70;99.90;;;;;;5073848;28;20034;-88
2021/12/07 17:26:49;;;;;;;78.22;33.08;;;4.80;99.90;;;;;;5075290;28;20281;-89
2021/12/07 17:29:15;;;;;;;97.53;40.38;;;4.70;99.90;;;;;;5073427;28;20044;-89
2021/12/07 17:31:41;;;;;;;85.63;37.78;;;4.80;99.90;;;;;;5075052;28;20078;-87
2021/12/07 17:34:08;;;;;;;91.20;34.38;;;4.70;99.90;;;;;;5065708;28;20067;-89
2021/12/07 17:36:34;;;;;;;121.43;48.83;;;4.80;99.90;;;;;;5053575;28;20549;-89
2021/12/07 17:39:04;;;;;;;95.60;37.13;;;4.80;99.90;;;;;;5072435;28;20028;-89
2021/12/07 17:41:30;;;;;;;95.65;34.35;;;4.90;99.90;;;;;;5073604;28;20025;-89
2021/12/07 17:43:56;;;;;;;83.05;30.55;;;5.00;99.90;;;;;;5073386;28;20028;-88
2021/12/07 17:46:22;;;;;;;138.65;58.80;;;4.70;99.90;;;;;;5074252;28;20360;-87
2021/12/07 17:48:48;;;;;;;123.53;43.25;;;4.50;99.90;;;;;;5074209;28;20024;-86
2021/12/07 17:51:14;;;;;;;109.35;46.00;;;4.50;99.90;;;;;;5072893;28;20021;-89
2021/12/07 17:53:40;;;;;;;101.75;50.10;;;4.50;99.90;;;;;;5073220;28;20502;-88
2021/12/07 17:56:06;;;;;;;127.20;45.15;;;4.60;99.90;;;;;;5072843;28;20028;-86
2021/12/07 17:58:32;;;;;;;194.35;65.57;;;4.60;99.90;;;;;;5073230;28;20035;-88
2021/12/07 18:00:57;;;;;;;144.52;49.35;;;4.60;99.90;;;;;;5052921;28;20036;-86
2021/12/07 18:03:25;;;;;;;136.65;45.95;;;4.60;99.90;;;;;;5052498;28;20028;-85
2021/12/07 18:05:51;;;;;;;127.63;43.08;;;4.60;99.90;;;;;;5054362;28;20021;-88
2021/12/07 18:08:18;;;;;;;134.43;42.35;;;4.60;99.90;;;;;;5052693;28;20120;-88
2021/12/07 18:10:44;;;;;;;115.47;40.33;;;4.60;99.90;;;;;;5052950;28;20057;-87
2021/12/07 18:13:12;;;;;;;119.82;38.00;;;4.60;99.90;;;;;;5052992;28;20025;-87
2021/12/07 18:15:38;;;;;;;109.93;37.92;;;4.50;99.90;;;;;;5052776;28;20401;-88
2021/12/07 18:18:04;;;;;;;112.70;36.38;;;4.50;99.90;;;;;;5052813;28;20039;-87
2021/12/07 18:20:36;;;;;;;166.13;41.55;;;4.50;99.90;;;;;;5052536;28;20533;-86
2021/12/07 18:23:03;;;;;;;126.05;38.35;;;4.40;99.90;;;;;;5052412;28;20538;-88
2021/12/07 18:25:29;;;;;;;119.03;38.40;;;4.50;99.90;;;;;;5052501;28;20057;-87
2021/12/07 18:27:54;;;;;;;158.52;42.97;;;4.50;99.90;;;;;;5052200;28;20088;-88
2021/12/07 18:30:24;;;;;;;134.88;38.58;;;4.60;99.90;;;;;;5052997;28;20031;-89
2021/12/07 18:32:51;;;;;;;146.65;42.95;;;4.50;99.90;;;;;;5053371;28;20018;-89
2021/12/07 18:35:16;;;;;;;197.07;60.33;;;4.60;99.90;;;;;;5052834;28;20025;-89
2021/12/07 18:37:44;;;;;;;123.97;40.00;;;4.50;99.90;;;;;;5052678;28;20520;-88
2021/12/07 18:40:13;;;;;;;136.80;42.85;;;4.50;99.90;;;;;;5053757;28;20096;-88
2021/12/07 18:42:39;;;;;;;126.38;42.13;;;4.50;99.90;;;;;;5052857;28;20043;-90
2021/12/07 18:45:07;;;;;;;134.75;35.50;;;4.50;99.90;;;;;;5053045;28;20468;-90
2021/12/07 18:47:33;;;;;;;178.82;54.35;;;4.50;99.90;;;;;;5052991;28;20106;-90
2021/12/07 18:49:59;;;;;;;163.15;45.60;;;4.60;99.90;;;;;;5069849;28;20426;-90
2021/12/07 18:52:25;;;;;;;141.10;37.40;;;4.50;99.90;;;;;;5073939;28;20028;-89
2021/12/07 18:54:50;;;;;;;124.72;47.05;;;4.50;99.90;;;;;;5054708;28;20471;-89
2021/12/07 18:57:17;;;;;;;187.82;42.20;;;4.50;99.90;;;;;;5052696;28;20018;-90
2021/12/07 18:59:43;;;;;;;190.90;49.20;;;4.50;99.90;;;;;;5052676;28;20032;-89
2021/12/07 19:02:10;;;;;;;174.05;49.17;;;4.50;99.90;;;;;;5052374;28;20025;-88
2021/12/07 19:04:35;;;;;;;162.65;39.20;;;4.40;99.90;;;;;;5052512;28;20104;-89
2021/12/07 19:07:02;;;;;;;131.30;41.53;;;4.30;99.90;;;;;;5052317;28;20444;-89
2021/12/07 19:09:28;;;;;;;261.08;54.75;;;4.20;99.90;;;;;;5052165;28;20025;-89
2021/12/07 19:11:54;;;;;;;209.73;48.47;;;4.10;99.90;;;;;;5052404;28;20039;-88
2021/12/07 19:14:20;;;;;;;183.30;48.50;;;4.10;99.90;;;;;;5054257;28;20040;-87
2021/12/07 19:16:46;;;;;;;248.82;53.75;;;4.10;99.90;;;;;;5055704;28;20024;-88
2021/12/07 19:19:14;;;;;;;210.73;49.20;;;4.20;99.90;;;;;;5055779;28;20029;-87
2021/12/07 19:21:40;;;;;;;152.70;37.05;;;4.10;99.90;;;;;;5055799;28;20472;-89
2021/12/07 19:24:06;;;;;;;148.40;36.22;;;4.20;99.90;;;;;;5055681;28;20120;-87
2021/12/07 19:26:33;;;;;;;281.63;55.05;;;4.10;99.90;;;;;;5055654;28;20492;-87
2021/12/07 19:29:00;;;;;;;469.38;68.65;;;4.00;99.90;;;;;;5055241;28;20076;-87
2021/12/07 19:31:26;;;;;;;194.52;39.45;;;4.00;99.90;;;;;;5056916;28;20060;-87
2021/12/07 19:33:54;;;;;;;248.43;54.70;;;4.10;99.90;;;;;;5056713;28;20459;-88
2021/12/07 19:36:28;;;;;;;209.88;39.80;;;4.00;99.90;;;;;;5056629;28;20021;-87
2021/12/07 19:38:53;;;;;;;162.55;39.05;;;4.00;99.90;;;;;;5055365;28;20512;-87
2021/12/07 19:41:19;;;;;;;234.82;43.25;;;4.00;99.90;;;;;;5062811;28;20115;-87
2021/12/07 19:43:45;;;;;;;234.82;46.90;;;4.10;99.90;;;;;;5074362;28;20031;-86
2021/12/07 19:46:12;;;;;;;191.43;41.45;;;4.10;99.90;;;;;;5075280;28;20028;-87
2021/12/07 19:48:38;;;;;;;258.33;47.22;;;4.00;99.90;;;;;;5075258;28;20029;-87
2021/12/07 19:51:08;;;;;;;171.57;37.08;;;4.00;99.90;;;;;;5075131;28;20033;-87
2021/12/07 19:53:38;;;;;;;422.77;69.53;;;4.00;99.90;;;;;;5074899;28;20086;-87
2021/12/07 19:56:11;;;;;;;239.48;41.95;;;3.90;99.90;;;;;;5075142;28;20083;-86
2021/12/07 19:58:38;;;;;;;240.45;40.67;;;3.90;99.90;;;;;;5075055;28;20055;-87
2021/12/07 20:01:06;;;;;;;177.70;35.08;;;3.90;99.90;;;;;;5074935;28;20082;-88
2021/12/07 20:03:33;;;;;;;211.75;35.65;;;3.80;99.90;;;;;;5076164;28;20028;-87
2021/12/07 20:05:59;;;;;;;144.18;28.60;;;3.80;99.90;;;;;;5074878;28;20486;-88
2021/12/07 20:08:25;;;;;;;287.70;38.03;;;3.80;99.90;;;;;;5074820;28;20082;-88
2021/12/07 20:10:52;;;;;;;168.25;28.02;;;3.80;99.90;;;;;;5074871;28;20025;-88
2021/12/07 20:13:21;;;;;;;236.38;35.55;;;3.70;99.90;;;;;;5067236;28;20459;-88
2021/12/07 20:15:55;;;;;;;141.85;27.25;;;3.70;99.90;;;;;;5054837;28;20365;-88
2021/12/07 20:18:21;;;;;;;156.13;29.70;;;3.70;99.90;;;;;;5054992;28;20036;-87
2021/12/07 20:20:52;;;;;;;175.88;31.15;;;3.80;99.90;;;;;;5055822;28;20021;-88
2021/12/07 20:23:28;;;;;;;162.52;30.52;;;3.70;99.90;;;;;;5062366;28;20081;-88
2021/12/07 20:25:54;;;;;;;150.70;29.55;;;3.70;99.90;;;;;;5074634;28;20113;-87
2021/12/07 20:28:21;;;;;;;215.52;44.22;;;3.60;99.90;;;;;;5075667;28;20087;-87
2021/12/07 20:30:47;;;;;;;238.98;40.08;;;3.60;99.90;;;;;;5074579;28;20484;-90
2021/12/07 20:33:12;;;;;;;199.85;34.20;;;3.50;99.90;;;;;;5065925;28;20103;-91
2021/12/07 20:35:38;;;;;;;189.05;32.90;;;3.50;99.90;;;;;;5054697;28;20025;-90
2021/12/07 20:38:04;;;;;;;344.10;47.97;;;3.60;99.90;;;;;;5054660;28;20020;-88
2021/12/07 20:40:30;;;;;;;229.02;38.45;;;3.50;99.90;;;;;;5054510;28;20501;-90
2021/12/07 20:43:00;;;;;;;165.00;30.90;;;3.50;99.90;;;;;;5056102;28;20060;-89
2021/12/07 20:45:27;;;;;;;326.50;41.60;;;3.60;99.90;;;;;;5054459;28;20059;-87
2021/12/07 20:47:53;;;;;;;162.65;30.70;;;3.50;99.90;;;;;;5054368;28;20029;-90
2021/12/07 20:50:21;;;;;;;261.83;40.55;;;3.50;99.90;;;;;;5054643;28;20035;-91
2021/12/07 20:52:47;;;;;;;146.68;31.05;;;3.50;99.90;;;;;;5054735;28;20103;-89
2021/12/07 20:55:14;;;;;;;167.35;33.17;;;3.40;99.90;;;;;;5054195;28;20059;-86
2021/12/07 20:57:40;;;;;;;166.13;29.10;;;3.50;99.90;;;;;;5055430;28;20063;-89
2021/12/07 21:00:08;;;;;;;188.60;30.58;;;3.50;99.90;;;;;;5054168;28;20435;-88
2021/12/07 21:02:34;;;;;;;187.18;27.85;;;3.50;99.90;;;;;;5054334;28;20071;-88
2021/12/07 21:05:00;;;;;;;161.07;27.67;;;3.40;99.90;;;;;;5071739;28;20407;-87
2021/12/07 21:07:26;;;;;;;172.13;29.38;;;3.20;99.90;;;;;;5074162;28;20401;-89
2021/12/07 21:09:52;;;;;;;159.90;26.95;;;3.30;99.90;;;;;;5077565;28;20020;-92
2021/12/07 21:12:18;;;;;;;138.80;25.67;;;3.30;99.90;;;;;;5076357;28;20025;-93
2021/12/07 21:14:44;;;;;;;185.63;31.70;;;3.30;99.90;;;;;;5075707;28;20025;-91
2021/12/07 21:17:11;;;;;;;210.07;33.90;;;3.40;99.90;;;;;;5075173;28;20107;-90
2021/12/07 21:19:37;;;;;;;174.27;34.08;;;3.30;99.90;;;;;;5074485;28;20488;-89
2021/12/07 21:22:04;;;;;;;127.97;29.35;;;3.30;99.90;;;;;;5074359;28;20025;-91
2021/12/07 21:24:30;;;;;;;173.85;32.00;;;3.20;99.90;;;;;;5074950;28;20024;-89
2021/12/07 21:26:56;;;;;;;148.20;25.98;;;3.20;99.90;;;;;;5075480;28;20016;-92
2021/12/07 21:29:25;;;;;;;156.10;29.27;;;3.20;99.90;;;;;;5074227;28;20376;-94
2021/12/07 21:31:56;;;;;;;121.32;26.52;;;3.20;99.90;;;;;;5076341;28;20475;-91
2021/12/07 21:34:22;;;;;;;150.75;25.70;;;3.20;99.90;;;;;;5073384;28;20032;-90
2021/12/07 21:36:49;;;;;;;176.07;32.63;;;3.20;99.90;;;;;;5073213;28;20052;-90
2021/12/07 21:39:15;;;;;;;203.27;30.85;;;3.10;99.90;;;;;;5073671;28;20056;-91
2021/12/07 21:41:41;;;;;;;183.57;31.60;;;3.00;99.90;;;;;;5073869;28;20054;-91
2021/12/07 21:44:07;;;;;;;156.65;29.33;;;3.00;99.90;;;;;;5073926;28;20387;-90
2021/12/07 21:46:32;;;;;;;152.55;30.13;;;3.00;99.90;;;;;;5073934;28;20463;-91
2021/12/07 21:48:58;;;;;;;140.60;29.20;;;3.00;99.90;;;;;;5073567;28;20032;-91
2021/12/07 21:51:24;;;;;;;132.43;28.08;;;3.10;99.90;;;;;;5073514;28;20024;-90
2021/12/07 21:53:50;;;;;;;131.02;26.98;;;3.10;99.90;;;;;;5073437;28;20459;-91
2021/12/07 21:56:16;;;;;;;146.88;27.40;;;3.00;99.90;;;;;;5073205;28;20031;-87
2021/12/07 21:58:43;;;;;;;142.68;28.77;;;3.00;99.90;;;;;;5072814;28;20020;-88
2021/12/07 22:01:09;;;;;;;122.97;26.67;;;3.00;99.90;;;;;;5073973;28;20490;-87
2021/12/07 22:03:35;;;;;;;116.35;26.27;;;3.10;99.90;;;;;;5072186;28;20033;-87
2021/12/07 22:06:01;;;;;;;157.65;29.88;;;3.10;99.90;;;;;;5074131;28;20024;-88
2021/12/07 22:08:26;;;;;;;149.27;29.13;;;2.90;99.90;;;;;;5072736;28;20063;-89
2021/12/07 22:10:52;;;;;;;184.50;30.67;;;3.00;99.90;;;;;;5073580;28;20111;-88
2021/12/07 22:13:20;;;;;;;127.85;27.63;;;3.10;99.90;;;;;;5073258;28;20471;-89
2021/12/07 22:15:46;;;;;;;108.80;24.25;;;3.00;99.90;;;;;;5064124;28;20060;-88
2021/12/07 22:18:12;;;;;;;140.07;28.70;;;3.00;99.90;;;;;;5052633;28;20029;-89
2021/12/07 22:20:39;;;;;;;144.45;31.08;;;3.00;99.90;;;;;;5052663;28;20365;-88
2021/12/07 22:23:10;;;;;;;170.48;30.05;;;2.90;99.90;;;;;;5052616;28;20029;-88
2021/12/07 22:25:36;;;;;;;129.07;28.95;;;2.90;99.90;;;;;;5052606;28;20039;-88
2021/12/07 22:28:03;;;;;;;170.10;33.25;;;2.90;99.90;;;;;;5052206;28;20049;-89
2021/12/07 22:30:29;;;;;;;117.13;27.10;;;3.00;99.90;;;;;;5067774;28;20020;-88
2021/12/07 22:32:55;;;;;;;117.70;26.05;;;3.00;99.90;;;;;;5070079;28;20107;-88
2021/12/07 22:35:22;;;;;;;119.78;25.77;;;3.00;99.90;;;;;;5053738;28;20057;-88
2021/12/07 22:37:48;;;;;;;224.63;35.92;;;3.00;99.90;;;;;;5058171;28;20025;-88
2021/12/07 22:40:14;;;;;;;114.95;25.98;;;3.00;99.90;;;;;;5059787;28;20043;-88
2021/12/07 22:42:40;;;;;;;216.85;32.22;;;3.10;99.90;;;;;;5052524;28;20033;-88
2021/12/07 22:45:07;;;;;;;145.15;27.45;;;3.00;99.90;;;;;;5053579;28;20096;-88
2021/12/07 22:47:33;;;;;;;146.93;27.38;;;2.90;99.90;;;;;;5053433;28;20032;-88
2021/12/07 22:50:02;;;;;;;207.27;35.08;;;2.90;99.90;;;;;;5055477;28;20029;-88
2021/12/07 22:52:28;;;;;;;143.32;27.23;;;2.90;99.90;;;;;;5056673;28;20025;-89
2021/12/07 22:54:54;;;;;;;130.23;25.85;;;2.80;99.90;;;;;;5072703;28;20036;-88
2021/12/07 22:57:20;;;;;;;192.30;31.63;;;3.00;99.90;;;;;;5056414;28;20108;-88
2021/12/07 22:59:46;;;;;;;116.78;25.17;;;3.00;99.90;;;;;;5056439;28;20543;-88
2021/12/07 23:02:12;;;;;;;123.65;24.55;;;2.90;99.90;;;;;;5056326;28;20033;-88
2021/12/07 23:04:39;;;;;;;111.40;25.15;;;2.90;99.90;;;;;;5056278;28;20107;-88
2021/12/07 23:07:05;;;;;;;171.68;28.45;;;2.90;99.90;;;;;;5056218;28;20407;-88
2021/12/07 23:09:32;;;;;;;135.13;25.23;;;3.00;99.90;;;;;;5056289;28;20182;-88
2021/12/07 23:11:58;;;;;;;168.15;33.38;;;2.90;99.90;;;;;;5056139;28;20483;-88